Time;durP1;ratioP1;P1;durP2;ratioP2;P2;SDS_P1;SDS_P2;PMS_P1;PMS_P2;Temp;Humidity;BMP_temperature;BMP_pressure;BME280_temperature;BME280_humidity;BME280_pressure;Samples;Min_cycle;Max_cycle;Signal;HPM_P1;HPM_P2
2022/02/25 00:01:49;;;;;;;5.10;2.90;;;;;;;-1.05;79.62;99121.19;104877;1274;61152;-22
2022/02/25 00:04:24;;;;;;;5.80;3.30;;;;;;;-0.56;79.36;99119.90;104787;1275;74610;-22
2022/02/25 00:06:57;;;;;;;;;;;;;;;-0.09;77.67;99117.27;104891;1274;75982;-22
2022/02/25 00:09:29;;;;;;;5.20;3.20;;;;;;;-0.10;77.26;99115.24;104847;1274;73208;-22
2022/02/25 00:12:03;;;;;;;7.00;4.90;;;;;;;-0.32;77.49;99116.86;104867;1274;61137;-22
2022/02/25 00:14:31;;;;;;;6.50;3.80;;;;;;;-0.56;78.74;99112.42;104831;1274;61406;-22
2022/02/25 00:17:04;;;;;;;8.30;4.20;;;;;;;-0.77;79.32;99113.12;104905;1274;76054;-22
2022/02/25 00:19:40;;;;;;;3.90;2.70;;;;;;;-0.69;80.13;99114.73;104825;1274;76011;-22
2022/02/25 00:22:13;;;;;;;6.50;4.10;;;;;;;-0.10;78.35;99107.89;104739;1274;74462;-23
2022/02/25 00:24:45;;;;;;;2.80;2.20;;;;;;;0.07;77.51;99110.36;104908;1274;61175;-22
2022/02/25 00:27:18;;;;;;;7.80;3.90;;;;;;;-0.07;77.77;99109.48;104857;1274;61722;-22
2022/02/25 00:29:51;;;;;;;5.30;3.50;;;;;;;-0.32;77.99;99110.55;104901;1274;74711;-22
2022/02/25 00:32:26;;;;;;;7.10;3.80;;;;;;;-0.58;78.97;99109.60;104782;1277;74727;-22
2022/02/25 00:34:59;;;;;;;4.50;2.60;;;;;;;-0.81;79.85;99107.61;104738;1275;74355;-24
2022/02/25 00:37:31;;;;;;;9.60;4.30;;;;;;;-0.52;79.64;99098.98;104877;1274;61140;-22
2022/02/25 00:40:02;;;;;;;8.40;3.50;;;;;;;-0.06;77.62;99097.86;104853;1274;61126;-22
2022/02/25 00:42:36;;;;;;;6.00;3.40;;;;;;;-0.06;77.26;99094.45;104894;1274;72992;-23
2022/02/25 00:45:08;;;;;;;6.70;3.40;;;;;;;-0.28;77.75;99091.82;104599;1277;75954;-24
2022/02/25 00:47:39;;;;;;;4.10;2.40;;;;;;;-0.54;78.58;99090.02;104556;1275;74613;-24
2022/02/25 00:50:09;;;;;;;9.70;4.00;;;;;;;-0.80;79.11;99082.56;104562;1277;61150;-24
2022/02/25 00:52:39;;;;;;;5.10;2.90;;;;;;;-0.97;80.13;99077.52;104670;1274;61105;-24
2022/02/25 00:55:09;;;;;;;7.80;3.90;;;;;;;-0.49;79.64;99074.66;104914;1274;74863;-24
2022/02/25 00:57:46;;;;;;;7.20;3.70;;;;;;;-0.04;77.99;99076.10;104799;1277;74794;-24
2022/02/25 01:00:15;;;;;;;10.70;4.20;;;;;;;-0.06;77.35;99070.40;104497;1274;72915;-24
2022/02/25 01:02:45;;;;;;;6.30;3.20;;;;;;;-0.30;77.94;99060.00;104367;1274;61153;-24
2022/02/25 01:05:14;;;;;;;8.20;4.10;;;;;;;-0.55;78.64;99058.50;104585;1274;61038;-24
2022/02/25 01:07:46;;;;;;;6.00;3.40;;;;;;;-0.81;79.30;99059.58;104576;1277;74768;-24
2022/02/25 01:10:16;;;;;;;10.60;3.90;;;;;;;-0.99;79.86;99056.09;104602;1277;76095;-23
2022/02/25 01:12:45;;;;;;;6.90;3.80;;;;;;;-0.53;79.45;99057.91;104585;1274;71709;-23
2022/02/25 01:15:15;;;;;;;4.90;2.60;;;;;;;-0.11;77.82;99054.71;104608;1274;61885;-22
2022/02/25 01:17:44;;;;;;;5.20;3.60;;;;;;;-0.15;77.31;99049.72;104523;1274;61844;-23
2022/02/25 01:20:12;;;;;;;5.80;3.00;;;;;;;-0.35;78.08;99045.17;104630;1274;74710;-23
2022/02/25 01:22:41;;;;;;;8.30;2.90;;;;;;;-0.61;78.55;99041.14;104650;1274;76069;-23
2022/02/25 01:25:09;;;;;;;6.40;3.90;;;;;;;-0.85;79.27;99035.48;104644;1274;73785;-24
2022/02/25 01:27:40;;;;;;;5.50;3.50;;;;;;;-0.84;80.16;99027.27;104585;1277;62543;-22
2022/02/25 01:30:10;;;;;;;8.30;3.90;;;;;;;-0.28;78.58;99028.02;104671;1274;61277;-24
2022/02/25 01:32:41;;;;;;;6.60;3.50;;;;;;;-0.10;77.51;99022.41;104456;1274;75277;-25
2022/02/25 01:35:10;;;;;;;5.60;2.00;;;;;;;-0.25;77.70;99028.06;104617;1274;75888;-24
2022/02/25 01:37:38;;;;;;;7.40;3.70;;;;;;;-0.48;78.26;99019.88;104651;1274;74238;-24
2022/02/25 01:40:08;;;;;;;10.30;4.50;;;;;;;-0.71;78.82;99018.64;104706;1274;61045;-23
2022/02/25 01:42:47;;;;;;;5.80;3.40;;;;;;;-0.89;79.34;99018.58;104493;1274;62217;-24
2022/02/25 01:45:16;;;;;;;7.90;3.80;;;;;;;-0.45;78.77;99017.91;104695;1274;74538;-23
2022/02/25 01:47:49;;;;;;;7.70;4.40;;;;;;;-0.15;77.09;99014.06;104711;1274;74971;-24
2022/02/25 01:50:18;;;;;;;8.00;3.60;;;;;;;-0.23;77.20;99013.47;104576;1277;74334;-23
2022/02/25 01:52:59;;;;;;;6.00;3.30;;;;;;;-0.45;77.29;99009.34;104607;1276;61237;-23
2022/02/25 01:55:30;;;;;;;4.30;2.80;;;;;;;-0.74;77.92;99003.55;104529;1274;61194;-23
2022/02/25 01:57:59;;;;;;;7.10;3.40;;;;;;;-1.00;78.47;98994.24;104668;1274;74616;-23
2022/02/25 02:00:28;;;;;;;7.20;3.50;;;;;;;-1.11;79.62;98985.10;104619;1274;76208;-24
2022/02/25 02:02:56;;;;;;;6.60;3.50;;;;;;;-0.56;78.43;98983.14;104629;1274;74423;-23
2022/02/25 02:05:25;;;;;;;6.20;3.80;;;;;;;-0.29;77.51;98978.73;104607;1274;62073;-22
2022/02/25 02:07:55;;;;;;;6.90;4.20;;;;;;;-0.35;77.36;98978.11;104645;1274;61127;-24
2022/02/25 02:10:23;;;;;;;5.30;2.60;;;;;;;-0.54;77.63;98980.86;104570;1277;74751;-23
2022/02/25 02:12:53;;;;;;;3.30;2.10;;;;;;;-0.80;77.96;98980.25;104652;1274;75063;-22
2022/02/25 02:15:21;;;;;;;7.10;3.20;;;;;;;-1.06;78.46;98982.69;104667;1274;74119;-22
2022/02/25 02:17:50;;;;;;;4.40;2.20;;;;;;;-1.15;79.04;98987.61;104633;1274;61921;-24
2022/02/25 02:20:19;;;;;;;5.50;3.40;;;;;;;-0.55;78.04;98986.70;104615;1274;61031;-23
2022/02/25 02:22:59;;;;;;;5.00;3.40;;;;;;;-0.19;76.24;98989.29;104560;1274;74604;-22
2022/02/25 02:25:27;;;;;;;3.60;2.60;;;;;;;-0.32;75.90;98984.84;104598;1277;75793;-22
2022/02/25 02:30:45;;;;;;;6.50;2.80;;;;;;;-0.89;77.32;98973.60;104654;1274;61153;-23
2022/02/25 02:33:13;;;;;;;4.50;2.60;;;;;;;-1.16;78.09;98970.42;104676;1277;61889;-23
2022/02/25 02:35:43;;;;;;;4.80;3.00;;;;;;;-1.30;78.90;98962.58;104809;1274;75302;-25
2022/02/25 02:38:13;;;;;;;6.50;3.70;;;;;;;-0.78;78.21;98959.55;104703;1277;76189;-24
2022/02/25 02:40:42;;;;;;;6.70;3.50;;;;;;;-0.48;76.72;98965.12;104429;1277;73529;-29
2022/02/25 02:43:15;;;;;;;4.10;2.40;;;;;;;-0.59;76.40;98966.71;104678;1274;61121;-25
2022/02/25 02:45:43;;;;;;;2.50;1.80;;;;;;;-0.86;76.81;98962.90;104746;1274;61770;-23
2022/02/25 02:48:11;;;;;;;5.70;2.80;;;;;;;-1.15;77.48;98962.55;104638;1274;75795;-23
2022/02/25 02:50:39;;;;;;;2.20;1.40;;;;;;;-1.41;78.18;98965.14;104683;1274;76189;-25
2022/02/25 02:53:09;;;;;;;4.30;2.60;;;;;;;-1.53;79.09;98967.26;104742;1274;73394;-25
2022/02/25 02:55:38;;;;;;;4.50;2.70;;;;;;;-0.99;78.31;98971.38;104527;1274;61252;-27
2022/02/25 02:58:06;;;;;;;3.90;2.90;;;;;;;-0.64;76.87;98976.80;104696;1277;61038;-24
2022/02/25 03:00:35;;;;;;;3.70;2.40;;;;;;;-0.67;76.71;98972.64;104636;1274;73960;-24
2022/02/25 03:03:06;;;;;;;4.70;2.00;;;;;;;-0.86;76.85;98967.69;104631;1274;74045;-24
2022/02/25 03:05:36;;;;;;;3.20;2.00;;;;;;;-1.14;76.99;98965.27;104580;1274;74230;-24
2022/02/25 03:08:05;;;;;;;4.40;2.20;;;;;;;-1.41;77.52;98963.80;104655;1274;61124;-24
2022/02/25 03:10:34;;;;;;;3.80;2.00;;;;;;;-1.63;78.31;98963.14;104627;1274;62024;-24
2022/02/25 03:13:03;;;;;;;3.50;2.70;;;;;;;-1.20;78.07;98963.58;104545;1274;75524;-24
2022/02/25 03:15:39;;;;;;;3.70;1.90;;;;;;;-0.68;76.34;98966.71;104539;1275;74960;-23
2022/02/25 03:18:08;;;;;;;5.30;2.90;;;;;;;-0.66;76.05;98964.42;104615;1274;74508;-23
2022/02/25 03:20:36;;;;;;;5.10;2.10;;;;;;;-0.83;76.06;98966.23;104727;1274;61033;-23
2022/02/25 03:23:04;;;;;;;5.80;3.70;;;;;;;-1.07;76.89;98966.21;104760;1274;61733;-23
2022/02/25 03:25:33;;;;;;;4.80;2.90;;;;;;;-1.32;77.50;98968.76;104654;1274;75412;-23
2022/02/25 03:28:01;;;;;;;3.50;1.30;;;;;;;-1.54;78.04;98967.61;104619;1274;75821;-23
2022/02/25 03:30:29;;;;;;;4.50;2.80;;;;;;;-1.57;78.82;98968.73;104555;1274;74595;-23
2022/02/25 03:32:58;;;;;;;4.70;2.80;;;;;;;-0.96;77.50;98967.36;104603;1274;61144;-23
2022/02/25 03:35:27;;;;;;;8.40;2.80;;;;;;;-0.67;76.11;98964.13;104649;1274;62134;-23
2022/02/25 03:37:56;;;;;;;4.40;2.10;;;;;;;-0.77;75.99;98962.23;104746;1274;75367;-23
2022/02/25 03:40:24;;;;;;;5.30;2.40;;;;;;;-1.01;76.24;98953.23;104706;1276;75251;-23
2022/02/25 03:42:53;;;;;;;3.40;1.80;;;;;;;-1.29;76.72;98949.44;104939;1274;74499;-23
2022/02/25 03:45:22;;;;;;;1.40;1.10;;;;;;;-1.56;77.81;98945.02;104732;1274;61054;-23
2022/02/25 03:47:50;;;;;;;3.40;2.50;;;;;;;-1.52;78.40;98944.08;104906;1274;61078;-24
2022/02/25 03:50:22;;;;;;;6.60;2.90;;;;;;;-0.97;76.65;98948.30;104743;1274;75448;-23
2022/02/25 03:52:50;;;;;;;5.70;3.20;;;;;;;-0.79;76.03;98946.79;104643;1274;75817;-23
2022/02/25 03:55:18;;;;;;;4.40;2.60;;;;;;;-0.94;75.52;98943.27;104620;1274;73566;-23
2022/02/25 03:57:47;;;;;;;6.30;2.40;;;;;;;-1.24;76.15;98937.15;104554;1274;61150;-23
2022/02/25 04:00:16;;;;;;;4.40;2.50;;;;;;;-1.55;76.96;98938.87;104661;1276;61118;-23
2022/02/25 04:02:44;;;;;;;3.80;2.40;;;;;;;-1.80;77.57;98940.73;104601;1274;75670;-24
2022/02/25 04:05:13;;;;;;;4.90;2.20;;;;;;;-2.01;78.20;98937.63;104735;1274;73243;-24
2022/02/25 04:07:42;;;;;;;3.90;2.40;;;;;;;-1.54;77.75;98933.91;104733;1274;73432;-24
2022/02/25 04:10:11;;;;;;;5.00;2.20;;;;;;;-1.05;76.19;98932.92;104666;1276;61172;-24
2022/02/25 04:12:40;;;;;;;3.20;2.10;;;;;;;-1.07;75.73;98932.80;104699;1272;62078;-23
2022/02/25 04:15:11;;;;;;;2.40;1.60;;;;;;;-1.32;76.13;98933.52;104648;1275;75053;-23
2022/02/25 04:17:40;;;;;;;4.60;1.80;;;;;;;-1.58;76.80;98933.20;104630;1274;75719;-23
2022/02/25 04:20:09;;;;;;;4.30;2.10;;;;;;;-1.86;77.29;98932.04;104611;1274;72878;-23
2022/02/25 04:22:37;;;;;;;1.70;1.10;;;;;;;-2.12;78.20;98930.16;104358;1275;61044;-23
2022/02/25 04:25:06;;;;;;;3.20;2.00;;;;;;;-2.18;78.94;98926.44;104618;1274;61187;-23
2022/02/25 04:27:35;;;;;;;2.90;2.10;;;;;;;-1.59;77.60;98922.98;104633;1275;75864;-24
2022/02/25 04:30:05;;;;;;;2.70;1.80;;;;;;;-1.29;76.41;98927.61;104390;1274;73237;-23
2022/02/25 04:32:35;;;;;;;5.60;2.30;;;;;;;-1.42;75.91;98925.34;104596;1274;74497;-23
2022/02/25 04:35:06;;;;;;;2.40;1.70;;;;;;;-1.65;76.74;98926.42;104585;1275;61918;-23
2022/02/25 04:37:35;;;;;;;5.90;2.00;;;;;;;-1.91;77.28;98924.06;104554;1274;62095;-23
2022/02/25 04:40:05;;;;;;;6.00;2.40;;;;;;;-2.18;77.99;98923.18;104637;1274;76148;-24
2022/02/25 04:42:36;;;;;;;5.90;2.10;;;;;;;-2.36;78.80;98922.40;104512;1274;75181;-24
2022/02/25 04:45:07;;;;;;;3.60;2.00;;;;;;;-1.91;78.37;98924.21;104649;1274;74134;-22
2022/02/25 04:47:39;;;;;;;2.10;1.30;;;;;;;-1.40;76.69;98923.38;104472;1274;61098;-22
2022/02/25 04:50:08;;;;;;;3.90;2.70;;;;;;;-1.39;76.01;98919.94;104680;1277;61205;-23
2022/02/25 04:52:42;;;;;;;4.80;2.40;;;;;;;-1.61;76.51;98922.05;104621;1274;74306;-24
2022/02/25 04:55:11;;;;;;;6.10;2.40;;;;;;;-1.86;76.96;98922.88;104627;1274;74878;-23
2022/02/25 04:57:42;;;;;;;5.10;1.70;;;;;;;-2.10;78.06;98917.52;104834;1274;74199;-23
2022/02/25 05:00:13;;;;;;;3.90;1.40;;;;;;;-2.30;78.59;98922.56;104595;1274;61147;-23
2022/02/25 05:02:46;;;;;;;3.80;2.40;;;;;;;-2.34;79.37;98923.67;104566;1274;61120;-23
2022/02/25 05:05:15;;;;;;;4.00;2.50;;;;;;;-1.67;77.96;98927.38;104726;1274;73846;-23
2022/02/25 05:07:44;;;;;;;3.90;2.60;;;;;;;-1.31;76.35;98926.81;104751;1275;74923;-23
2022/02/25 05:10:12;;;;;;;4.40;2.70;;;;;;;-1.37;76.25;98931.98;104941;1274;73107;-23
2022/02/25 05:12:43;;;;;;;4.20;2.80;;;;;;;-1.61;76.44;98931.74;104681;1274;61082;-23
2022/02/25 05:20:47;;;;;;;5.70;2.20;;;;;;;-2.36;78.60;98919.15;104606;1274;75977;-24
2022/02/25 05:23:16;;;;;;;4.60;1.60;;;;;;;-1.85;78.38;98919.78;104756;1271;72962;-22
2022/02/25 05:25:56;;;;;;;4.50;3.20;;;;;;;-1.38;76.71;98922.13;104830;1271;61775;-22
2022/02/25 05:28:25;;;;;;;2.20;1.10;;;;;;;-1.32;76.49;98922.46;104942;1271;61764;-22
2022/02/25 05:30:53;;;;;;;4.30;2.10;;;;;;;-1.42;77.14;98922.95;104902;1271;74577;-22
2022/02/25 05:33:21;;;;;;;2.70;1.70;;;;;;;-1.53;77.80;98924.84;104964;1271;74815;-22
2022/02/25 05:35:49;;;;;;;3.10;2.30;;;;;;;-1.63;77.96;98924.52;104819;1274;74929;-22
2022/02/25 05:38:18;;;;;;;4.70;2.50;;;;;;;-1.70;78.54;98917.59;104959;1271;62807;-22
2022/02/25 05:40:46;;;;;;;5.50;2.70;;;;;;;-1.16;77.99;98913.19;104890;1271;61016;-23
2022/02/25 05:43:15;;;;;;;3.70;2.60;;;;;;;-0.66;76.27;98913.77;105069;1271;75579;-22
2022/02/25 05:45:43;;;;;;;4.10;2.70;;;;;;;-0.60;75.82;98908.95;104874;1271;75810;-22
2022/02/25 05:48:11;;;;;;;4.00;2.30;;;;;;;-0.72;76.17;98906.51;104870;1271;74167;-22
2022/02/25 05:50:40;;;;;;;4.30;3.00;;;;;;;-0.89;76.49;98905.08;104970;1271;63056;-22
2022/02/25 05:53:08;;;;;;;5.50;2.40;;;;;;;-1.05;77.23;98906.48;104963;1271;61051;-22
2022/02/25 05:55:37;;;;;;;3.40;2.20;;;;;;;-1.13;78.04;98904.42;104982;1271;75547;-22
2022/02/25 05:58:06;;;;;;;8.70;3.00;;;;;;;-0.63;77.17;98907.86;105115;1271;76068;-22
2022/02/25 06:00:38;;;;;;;3.60;2.10;;;;;;;-0.25;75.91;98908.30;105014;1271;74433;-22
2022/02/25 06:03:06;;;;;;;5.60;3.10;;;;;;;-0.20;75.49;98898.89;104895;1271;61077;-22
2022/02/25 06:05:35;;;;;;;6.30;3.10;;;;;;;-0.31;75.71;98902.23;104898;1271;61113;-23
2022/02/25 06:08:04;;;;;;;5.10;2.80;;;;;;;-0.48;76.60;98903.88;104947;1271;74344;-23
2022/02/25 06:10:33;;;;;;;6.50;3.30;;;;;;;-0.59;77.03;98899.35;104801;1272;75791;-22
2022/02/25 06:13:02;;;;;;;4.20;3.00;;;;;;;-0.22;76.62;98902.36;105084;1274;74365;-22
2022/02/25 06:15:30;;;;;;;8.50;3.30;;;;;;;0.23;74.85;98903.13;105021;1271;61048;-22
2022/02/25 06:18:01;;;;;;;5.70;3.80;;;;;;;0.31;74.20;98904.84;105121;1271;61863;-23
2022/02/25 06:20:29;;;;;;;5.40;3.40;;;;;;;0.25;74.21;98907.50;105112;1271;75312;-22
2022/02/25 06:22:58;;;;;;;5.30;2.90;;;;;;;0.16;74.48;98909.39;104980;1271;74709;-22
2022/02/25 06:25:26;;;;;;;4.20;2.70;;;;;;;0.02;75.12;98902.80;104918;1271;74400;-22
2022/02/25 06:27:55;;;;;;;5.10;2.90;;;;;;;0.31;74.60;98898.36;104807;1271;61093;-24
2022/02/25 06:30:23;;;;;;;5.40;3.00;;;;;;;0.85;73.11;98898.31;104802;1271;61070;-25
2022/02/25 06:32:54;;;;;;;6.50;3.00;;;;;;;0.98;72.30;98899.95;104862;1271;74928;-22
2022/02/25 06:35:26;;;;;;;6.40;3.90;;;;;;;0.89;72.39;98901.20;104836;1272;74762;-22
2022/02/25 06:37:55;;;;;;;5.60;3.70;;;;;;;0.77;72.65;98901.74;105113;1274;73319;-22
2022/02/25 06:40:24;;;;;;;5.30;3.00;;;;;;;0.62;72.87;98902.71;105160;1271;61090;-22
2022/02/25 06:42:53;;;;;;;7.20;3.00;;;;;;;0.50;73.39;98900.99;105068;1271;62367;-23
2022/02/25 06:45:22;;;;;;;6.80;3.80;;;;;;;0.64;74.04;98894.45;104877;1271;75340;-22
2022/02/25 06:47:50;;;;;;;4.80;3.10;;;;;;;1.24;71.50;98892.65;104856;1268;75719;-22
2022/02/25 06:50:18;;;;;;;6.60;3.50;;;;;;;1.55;70.67;98891.25;104807;1271;74505;-22
2022/02/25 06:52:47;;;;;;;5.10;3.40;;;;;;;1.64;70.37;98890.48;104841;1271;61159;-22
2022/02/25 06:55:16;;;;;;;5.20;3.00;;;;;;;1.59;70.01;98889.00;104898;1271;61130;-22
2022/02/25 06:58:03;;;;;;;8.60;4.10;;;;;;;1.49;70.61;98885.53;104886;1271;74647;-22
2022/02/25 07:00:37;;;;;;;5.40;3.20;;;;;;;1.42;71.09;98877.48;104677;1271;76042;-23
2022/02/25 07:03:06;;;;;;;4.40;3.20;;;;;;;1.44;71.49;98875.00;104736;1272;73247;-22
2022/02/25 07:05:39;;;;;;;5.50;3.20;;;;;;;1.46;71.78;98872.51;104974;1271;61134;-22
2022/02/25 07:08:08;;;;;;;5.70;3.40;;;;;;;1.49;71.75;98869.29;105059;1271;61006;-22
2022/02/25 07:10:37;;;;;;;5.60;2.70;;;;;;;1.61;71.50;98862.90;105107;1271;75607;-22
2022/02/25 07:13:06;;;;;;;7.70;3.60;;;;;;;2.17;69.87;98867.04;105131;1274;75841;-22
2022/02/25 07:15:35;;;;;;;7.00;3.00;;;;;;;2.49;67.94;98867.20;104957;1271;74167;-22
2022/02/25 07:18:03;;;;;;;8.60;4.00;;;;;;;2.56;67.08;98870.74;105193;1271;61028;-22
2022/02/25 07:20:32;;;;;;;4.80;2.70;;;;;;;2.47;66.82;98879.24;105147;1273;61033;-22
2022/02/25 07:23:03;;;;;;;5.10;3.20;;;;;;;2.47;67.14;98877.20;105134;1271;75218;-22
2022/02/25 07:25:31;;;;;;;8.50;3.30;;;;;;;2.48;66.83;98876.14;104903;1272;76067;-22
2022/02/25 07:27:59;;;;;;;8.90;4.00;;;;;;;2.44;67.02;98874.79;104982;1271;72573;-22
2022/02/25 07:30:29;;;;;;;6.20;3.90;;;;;;;2.50;66.56;98872.27;104706;1271;61045;-23
2022/02/25 07:32:57;;;;;;;4.20;2.90;;;;;;;2.43;67.04;98869.36;104709;1274;61046;-24
2022/02/25 07:35:26;;;;;;;11.00;4.10;;;;;;;2.46;66.95;98874.50;104879;1271;74687;-23
2022/02/25 07:37:55;;;;;;;4.10;2.50;;;;;;;2.51;66.56;98879.76;104974;1270;74753;-23
2022/02/25 07:40:24;;;;;;;3.50;2.40;;;;;;;2.62;66.95;98881.78;104952;1271;74435;-22
2022/02/25 07:42:54;;;;;;;2.60;2.10;;;;;;;2.79;66.81;98871.98;105048;1271;61175;-23
2022/02/25 07:45:25;;;;;;;5.80;3.30;;;;;;;2.90;66.07;98871.23;105180;1270;61658;-22
2022/02/25 07:47:55;;;;;;;20.40;3.00;;;;;;;3.04;65.57;98862.43;105134;1271;73868;-22
2022/02/25 07:50:26;;;;;;;5.10;3.00;;;;;;;3.04;65.16;98874.30;104983;1271;75182;-22
2022/02/25 07:52:57;;;;;;;5.10;3.20;;;;;;;3.14;65.06;98874.95;104846;1274;74539;-22
2022/02/25 07:55:27;;;;;;;5.10;2.70;;;;;;;3.39;65.58;98871.91;104903;1271;61134;-22
2022/02/25 07:57:57;;;;;;;10.50;3.60;;;;;;;3.55;63.82;98865.72;104756;1271;61006;-22
2022/02/25 08:00:28;;;;;;;5.30;3.10;;;;;;;3.47;62.84;98868.08;104985;1271;75516;-23
2022/02/25 08:02:59;;;;;;;5.20;3.40;;;;;;;3.49;63.06;98872.74;105125;1271;76452;-22
2022/02/25 08:05:30;;;;;;;3.60;2.60;;;;;;;3.57;62.79;98873.11;104911;1274;73577;-22
2022/02/25 08:08:00;;;;;;;5.20;2.70;;;;;;;3.72;62.47;98872.47;104781;1272;61121;-24
2022/02/25 08:10:33;;;;;;;5.30;3.10;;;;;;;3.83;62.46;98873.24;104767;1272;62054;-27
2022/02/25 08:13:02;;;;;;;3.80;2.30;;;;;;;3.92;62.72;98868.48;104746;1271;74380;-22
2022/02/25 08:15:34;;;;;;;5.90;3.20;;;;;;;4.05;61.72;98868.78;104863;1271;76774;-22
2022/02/25 08:18:04;;;;;;;5.30;3.00;;;;;;;4.00;61.39;98859.75;105073;1271;73674;-22
2022/02/25 08:20:34;;;;;;;4.80;3.20;;;;;;;3.97;61.08;98857.01;105037;1272;61589;-22
2022/02/25 08:23:02;;;;;;;3.10;2.30;;;;;;;4.04;61.07;98854.70;104883;1271;61128;-22
2022/02/25 08:25:36;;;;;;;3.90;2.20;;;;;;;4.24;60.95;98853.23;105007;1271;74756;-22
2022/02/25 08:28:06;;;;;;;5.10;2.70;;;;;;;4.27;60.57;98854.79;105093;1271;76705;-22
2022/02/25 08:30:35;;;;;;;4.90;2.90;;;;;;;4.45;60.45;98854.10;105111;1274;74435;-22
2022/02/25 08:33:03;;;;;;;5.40;2.50;;;;;;;4.39;59.99;98841.74;105166;1271;61072;-22
2022/02/25 08:35:33;;;;;;;3.20;2.40;;;;;;;4.48;60.26;98841.19;105146;1271;61035;-24
2022/02/25 08:38:04;;;;;;;5.50;3.30;;;;;;;4.58;59.86;98835.60;105087;1271;75345;-22
2022/02/25 08:40:32;;;;;;;6.50;3.20;;;;;;;4.61;59.26;98828.91;105154;1271;75803;-22
2022/02/25 08:43:00;;;;;;;4.90;3.10;;;;;;;4.57;59.03;98825.39;105118;1271;74445;-22
2022/02/25 08:45:29;;;;;;;5.60;2.90;;;;;;;4.50;59.18;98819.59;105092;1271;61150;-22
2022/02/25 08:47:57;;;;;;;5.10;2.90;;;;;;;4.42;59.35;98815.23;105055;1271;62394;-22
2022/02/25 08:50:27;;;;;;;4.00;2.40;;;;;;;4.46;59.11;98813.64;104907;1271;75339;-22
2022/02/25 08:52:55;;;;;;;4.00;2.70;;;;;;;4.54;58.65;98805.39;104836;1273;75794;-22
2022/02/25 08:55:24;;;;;;;4.60;3.20;;;;;;;4.72;58.73;98802.98;105123;1271;74193;-22
2022/02/25 08:57:53;;;;;;;4.40;2.70;;;;;;;4.93;57.99;98803.36;105100;1271;61073;-22
2022/02/25 09:00:22;;;;;;;5.20;3.20;;;;;;;4.90;58.63;98795.85;104910;1272;61160;-23
2022/02/25 09:02:51;;;;;;;4.50;3.00;;;;;;;5.20;57.65;98784.02;104718;1271;76428;-22
2022/02/25 09:05:23;;;;;;;9.60;2.80;;;;;;;5.19;56.43;98780.27;104951;1271;74572;-22
2022/02/25 09:07:56;;;;;;;5.10;3.10;;;;;;;5.19;56.82;98785.59;104821;1274;74593;-22
2022/02/25 09:10:25;;;;;;;3.10;2.30;;;;;;;5.23;56.51;98782.93;104758;1274;61223;-22
2022/02/25 09:12:53;;;;;;;5.80;2.60;;;;;;;5.37;56.78;98789.28;104853;1274;61724;-22
2022/02/25 09:15:26;;;;;;;5.40;2.70;;;;;;;5.49;56.50;98785.95;105074;1271;75502;-22
2022/02/25 09:17:57;;;;;;;3.70;2.40;;;;;;;5.50;55.68;98786.59;104684;1271;75937;-22
2022/02/25 09:20:28;;;;;;;3.70;2.10;;;;;;;5.47;56.37;98780.94;104956;1274;74651;-22
2022/02/25 09:22:57;;;;;;;7.40;3.70;;;;;;;5.72;55.59;98786.02;104879;1272;62079;-22
2022/02/25 09:25:26;;;;;;;4.20;2.30;;;;;;;5.87;55.21;98786.77;104291;1271;897761;-23
2022/02/25 09:27:56;;;;;;;5.70;3.20;;;;;;;6.02;55.07;98789.08;104957;1271;75556;-22
2022/02/25 09:30:24;;;;;;;4.00;2.70;;;;;;;6.07;54.80;98791.00;105154;1271;74985;-22
2022/02/25 09:32:53;;;;;;;2.60;2.10;;;;;;;6.08;54.93;98790.42;105029;1274;74535;-22
2022/02/25 09:35:22;;;;;;;4.80;2.90;;;;;;;6.20;54.37;98792.35;105081;1271;61137;-24
2022/02/25 09:37:53;;;;;;;2.80;2.00;;;;;;;6.10;54.56;98785.83;105124;1271;61072;-23
2022/02/25 09:40:21;;;;;;;3.80;2.10;;;;;;;6.09;54.44;98790.14;105179;1271;75511;-23
2022/02/25 09:42:52;;;;;;;6.20;2.70;;;;;;;6.17;54.21;98786.88;105011;1271;75719;-22
2022/02/25 09:45:23;;;;;;;5.00;2.50;;;;;;;6.10;54.60;98788.23;104765;1271;73111;-22
2022/02/25 09:47:53;;;;;;;6.20;2.90;;;;;;;6.35;53.82;98786.18;104643;1274;61084;-22
2022/02/25 09:50:22;;;;;;;6.10;3.30;;;;;;;6.13;53.75;98785.58;104914;1272;61759;-23
2022/02/25 09:52:57;;;;;;;5.30;2.50;;;;;;;5.99;54.08;98786.19;105099;1271;74534;-22
2022/02/25 09:55:30;;;;;;;5.00;2.40;;;;;;;5.76;55.14;98787.49;104963;1273;75775;-22
2022/02/25 09:58:00;;;;;;;7.00;3.70;;;;;;;5.65;55.72;98790.41;104783;1271;71406;-22
2022/02/25 10:00:30;;;;;;;4.80;2.50;;;;;;;5.74;55.76;98786.95;104816;1271;61049;-22
2022/02/25 10:03:03;;;;;;;7.40;3.90;;;;;;;5.97;55.95;98789.70;104859;1274;61890;-23
2022/02/25 10:05:34;;;;;;;3.60;2.90;;;;;;;6.57;54.59;98785.94;104839;1274;75602;-22
2022/02/25 10:08:14;;;;;;;6.30;2.20;;;;;;;6.80;53.33;98775.70;104773;1272;76057;-22
2022/02/25 10:10:50;;;;;;;6.90;3.30;;;;;;;6.84;53.78;98773.04;105095;1271;74423;-24
2022/02/25 10:13:22;;;;;;;5.40;3.70;;;;;;;6.68;54.02;98774.65;105127;1271;61153;-23
2022/02/25 10:15:56;;;;;;;6.30;3.70;;;;;;;6.69;53.27;98772.70;105135;1271;61244;-23
2022/02/25 10:18:29;;;;;;;5.50;2.20;;;;;;;7.20;52.98;98770.52;105422;1274;74253;-24
2022/02/25 10:21:09;;;;;;;7.90;3.90;;;;;;;7.48;52.35;98766.88;104967;1275;75825;-25
2022/02/25 10:24:06;;;;;;;6.60;3.00;;;;;;;7.48;51.76;98762.91;104828;1271;72856;-31
2022/02/25 10:26:36;;;;;;;6.80;3.40;;;;;;;7.30;51.63;98757.33;104755;1271;61790;-30
2022/02/25 10:29:06;;;;;;;4.80;2.90;;;;;;;7.43;51.93;98753.46;104707;1271;61843;-30
2022/02/25 10:31:34;;;;;;;9.40;3.60;;;;;;;7.64;51.21;98752.63;104667;1272;74766;-30
2022/02/25 10:34:11;;;;;;;10.60;3.80;;;;;;;8.13;50.99;98744.68;104754;1274;77251;-31
2022/02/25 10:36:46;;;;;;;6.10;3.00;;;;;;;8.26;49.21;98743.50;104726;1271;72936;-30
2022/02/25 10:39:20;;;;;;;5.50;3.20;;;;;;;8.34;49.90;98738.20;104671;1274;61070;-30
2022/02/25 10:42:15;;;;;;;4.00;2.40;;;;;;;8.41;49.27;98745.80;104753;1274;61261;-29
2022/02/25 10:44:45;;;;;;;7.30;3.70;;;;;;;8.11;49.63;98742.55;104712;1274;73951;-29
2022/02/25 10:47:21;;;;;;;8.10;3.80;;;;;;;8.41;49.79;98745.35;104634;1271;75922;-31
2022/02/25 10:50:04;;;;;;;4.90;3.50;;;;;;;8.87;48.77;98739.85;104789;1272;72380;-29
2022/02/25 10:52:37;;;;;;;7.10;3.60;;;;;;;8.90;47.74;98740.48;105067;1271;61143;-29
2022/02/25 10:55:10;;;;;;;;;;;;;;;8.91;48.36;98737.98;104919;1271;61038;-30
2022/02/25 10:57:39;;;;;;;6.50;3.20;;;;;;;8.73;47.98;98737.86;104627;1271;74332;-29
2022/02/25 11:00:09;;;;;;;4.60;2.70;;;;;;;8.42;48.21;98736.61;104713;1274;76024;-29
2022/02/25 11:02:43;;;;;;;4.40;2.50;;;;;;;7.93;49.21;98738.26;104609;1272;73392;-29
2022/02/25 11:05:18;;;;;;;10.30;2.80;;;;;;;7.85;49.31;98734.87;104729;1274;61143;-28
2022/02/25 11:07:52;;;;;;;6.80;3.30;;;;;;;7.75;47.89;98729.54;104978;1271;62088;-29
2022/02/25 11:10:22;;;;;;;5.80;3.90;;;;;;;7.95;48.47;98728.36;104755;1274;75219;-29
2022/02/25 11:12:51;;;;;;;7.70;4.00;;;;;;;7.83;49.30;98729.23;104981;1271;75202;-29
2022/02/25 11:15:26;;;;;;;7.20;3.50;;;;;;;8.04;49.63;98724.77;104816;1274;74437;-29
2022/02/25 11:17:55;;;;;;;3.80;2.50;;;;;;;8.34;49.67;98719.19;104682;1274;61830;-29
2022/02/25 11:20:30;;;;;;;5.30;2.90;;;;;;;8.32;48.17;98716.05;104825;1271;61106;-29
2022/02/25 11:23:06;;;;;;;5.20;2.90;;;;;;;8.36;46.35;98711.29;104745;1272;73290;-29
2022/02/25 11:25:35;;;;;;;5.20;2.50;;;;;;;8.08;46.18;98710.81;104987;1272;76088;-29
2022/02/25 11:28:07;;;;;;;7.00;3.50;;;;;;;8.20;47.41;98711.29;104775;1272;74426;-29
2022/02/25 11:31:06;;;;;;;4.40;2.00;;;;;;;8.55;46.90;98713.15;104613;1272;61080;-29
2022/02/25 11:33:35;;;;;;;6.10;3.10;;;;;;;8.94;47.33;98710.94;104726;1274;61218;-29
2022/02/25 11:36:07;;;;;;;6.90;3.30;;;;;;;9.35;46.14;98709.34;104638;1272;75542;-29
2022/02/25 11:38:44;;;;;;;3.70;2.30;;;;;;;9.45;45.63;98707.92;104755;1271;76418;-29
2022/02/25 11:41:30;;;;;;;4.70;3.20;;;;;;;9.43;43.86;98704.89;104631;1274;74490;-28
2022/02/25 11:43:59;;;;;;;6.00;3.30;;;;;;;9.51;44.56;98706.02;104685;1271;61868;-29
2022/02/25 11:46:28;;;;;;;5.70;3.20;;;;;;;9.53;44.04;98703.89;104697;1271;62058;-29
2022/02/25 11:49:01;;;;;;;7.40;3.90;;;;;;;9.36;45.08;98706.02;104680;1274;75365;-29
2022/02/25 11:51:40;;;;;;;5.00;3.00;;;;;;;9.82;44.12;98699.64;104664;1274;75776;-29
2022/02/25 11:54:21;;;;;;;8.20;3.50;;;;;;;9.46;43.62;98699.66;104718;1271;74474;-29